sensor_id;sensor_type;location;lat;lon;timestamp;pressure;altitude;pressure_sealevel;temperature;humidity
63901;BME280;50538;53.482;10.294;2023-09-19T00:08:55;99927.91;;;17.50;100.00
63901;BME280;50538;53.482;10.294;2023-09-19T00:18:56;99933.88;;;17.52;100.00
63901;BME280;50538;53.482;10.294;2023-09-19T00:28:57;99936.56;;;17.52;100.00
63901;BME280;50538;53.482;10.294;2023-09-19T00:38:57;99933.41;;;17.43;100.00
63901;BME280;50538;53.482;10.294;2023-09-19T00:48:58;99933.88;;;17.40;100.00
63901;BME280;50538;53.482;10.294;2023-09-19T00:58:59;99940.75;;;17.36;100.00
63901;BME280;50538;53.482;10.294;2023-09-19T01:09:00;99942.00;;;17.34;100.00
63901;BME280;50538;53.482;10.294;2023-09-19T01:30:13;99955.13;;;17.24;100.00
63901;BME280;50538;53.482;10.294;2023-09-19T01:40:18;99968.56;;;17.24;100.00
63901;BME280;50538;53.482;10.294;2023-09-19T01:50:31;99968.31;;;17.25;100.00
63901;BME280;50538;53.482;10.294;2023-09-19T02:00:34;99967.06;;;17.28;100.00
63901;BME280;50538;53.482;10.294;2023-09-19T02:10:36;99971.91;;;17.19;100.00
63901;BME280;50538;53.482;10.294;2023-09-19T02:20:36;99987.06;;;17.13;100.00
63901;BME280;50538;53.482;10.294;2023-09-19T02:30:37;100008.00;;;17.05;100.00
63901;BME280;50538;53.482;10.294;2023-09-19T02:40:39;100012.41;;;16.99;100.00
63901;BME280;50538;53.482;10.294;2023-09-19T02:50:39;100008.09;;;16.98;100.00
63901;BME280;50538;53.482;10.294;2023-09-19T03:00:41;100009.56;;;16.94;100.00
63901;BME280;50538;53.482;10.294;2023-09-19T03:10:49;100014.34;;;16.92;100.00
63901;BME280;50538;53.482;10.294;2023-09-19T03:20:56;100018.41;;;16.83;100.00
63901;BME280;50538;53.482;10.294;2023-09-19T03:31:03;100026.50;;;16.76;100.00
63901;BME280;50538;53.482;10.294;2023-09-19T03:41:03;100023.31;;;16.68;100.00
63901;BME280;50538;53.482;10.294;2023-09-19T03:51:04;100035.81;;;16.55;100.00
63901;BME280;50538;53.482;10.294;2023-09-19T04:01:05;100032.66;;;16.40;100.00
63901;BME280;50538;53.482;10.294;2023-09-19T04:11:06;100060.81;;;16.25;97.41
63901;BME280;50538;53.482;10.294;2023-09-19T04:21:07;100079.72;;;16.05;92.84
63901;BME280;50538;53.482;10.294;2023-09-19T04:31:07;100095.69;;;15.86;89.92
63901;BME280;50538;53.482;10.294;2023-09-19T04:41:09;100106.31;;;15.68;88.08
63901;BME280;50538;53.482;10.294;2023-09-19T04:51:09;100131.72;;;15.52;88.73
63901;BME280;50538;53.482;10.294;2023-09-19T05:01:10;100145.56;;;15.36;89.60
63901;BME280;50538;53.482;10.294;2023-09-19T05:11:12;100141.06;;;15.23;90.86
63901;BME280;50538;53.482;10.294;2023-09-19T05:21:12;100145.00;;;15.14;91.75
63901;BME280;50538;53.482;10.294;2023-09-19T05:31:13;100173.59;;;15.07;92.42
63901;BME280;50538;53.482;10.294;2023-09-19T05:41:15;100175.88;;;14.97;92.74
63901;BME280;50538;53.482;10.294;2023-09-19T05:51:16;100165.19;;;14.90;93.77
63901;BME280;50538;53.482;10.294;2023-09-19T06:01:18;100187.41;;;14.98;94.50
63901;BME280;50538;53.482;10.294;2023-09-19T06:11:20;100195.81;;;15.14;93.93
63901;BME280;50538;53.482;10.294;2023-09-19T06:21:22;100184.22;;;15.47;93.76
63901;BME280;50538;53.482;10.294;2023-09-19T06:31:23;100196.84;;;15.78;91.60
63901;BME280;50538;53.482;10.294;2023-09-19T06:41:26;100201.25;;;16.04;91.06
63901;BME280;50538;53.482;10.294;2023-09-19T06:51:26;100191.69;;;16.28;88.66
63901;BME280;50538;53.482;10.294;2023-09-19T07:01:27;100208.81;;;16.51;88.19
63901;BME280;50538;53.482;10.294;2023-09-19T07:11:27;100207.94;;;16.58;88.32
63901;BME280;50538;53.482;10.294;2023-09-19T07:21:27;100223.75;;;16.66;87.77
63901;BME280;50538;53.482;10.294;2023-09-19T07:31:28;100245.97;;;16.73;86.74
63901;BME280;50538;53.482;10.294;2023-09-19T07:41:30;100256.00;;;16.84;85.85
63901;BME280;50538;53.482;10.294;2023-09-19T07:51:32;100270.75;;;16.93;83.75
63901;BME280;50538;53.482;10.294;2023-09-19T08:01:33;100259.94;;;17.06;83.24
63901;BME280;50538;53.482;10.294;2023-09-19T08:11:35;100273.28;;;16.88;83.32
63901;BME280;50538;53.482;10.294;2023-09-19T08:21:36;100281.56;;;16.86;82.85
63901;BME280;50538;53.482;10.294;2023-09-19T08:31:37;100291.81;;;16.89;81.67
63901;BME280;50538;53.482;10.294;2023-09-19T08:41:38;100278.69;;;17.06;81.34
63901;BME280;50538;53.482;10.294;2023-09-19T08:51:43;100276.66;;;17.27;80.08
63901;BME280;50538;53.482;10.294;2023-09-19T09:01:46;100284.41;;;17.41;79.12
63901;BME280;50538;53.482;10.294;2023-09-19T09:11:48;100278.06;;;17.54;77.86
63901;BME280;50538;53.482;10.294;2023-09-19T09:21:51;100266.59;;;17.65;74.94
63901;BME280;50538;53.482;10.294;2023-09-19T09:31:51;100285.47;;;17.95;74.24
63901;BME280;50538;53.482;10.294;2023-09-19T09:41:52;100282.06;;;18.36;73.79
63901;BME280;50538;53.482;10.294;2023-09-19T09:52:02;100294.81;;;18.71;68.41
63901;BME280;50538;53.482;10.294;2023-09-19T10:02:07;100289.81;;;18.86;68.96
63901;BME280;50538;53.482;10.294;2023-09-19T10:12:10;100297.00;;;19.15;65.34
63901;BME280;50538;53.482;10.294;2023-09-19T10:22:14;100302.53;;;19.32;64.30
63901;BME280;50538;53.482;10.294;2023-09-19T10:32:15;100301.84;;;19.37;62.05
63901;BME280;50538;53.482;10.294;2023-09-19T10:42:19;100309.19;;;19.18;60.92
63901;BME280;50538;53.482;10.294;2023-09-19T10:52:24;100298.97;;;19.20;62.22
63901;BME280;50538;53.482;10.294;2023-09-19T11:02:25;100300.75;;;19.26;62.42
63901;BME280;50538;53.482;10.294;2023-09-19T11:33:22;100302.38;;;19.27;63.75
63901;BME280;50538;53.482;10.294;2023-09-19T11:43:29;100298.63;;;19.28;62.82
63901;BME280;50538;53.482;10.294;2023-09-19T11:53:31;100307.94;;;19.44;62.02
63901;BME280;50538;53.482;10.294;2023-09-19T12:03:36;100304.53;;;19.72;62.48
63901;BME280;50538;53.482;10.294;2023-09-19T12:13:42;100283.34;;;19.64;61.13
63901;BME280;50538;53.482;10.294;2023-09-19T12:23:44;100285.66;;;19.72;61.97
63901;BME280;50538;53.482;10.294;2023-09-19T12:33:44;100285.25;;;19.92;60.76
63901;BME280;50538;53.482;10.294;2023-09-19T12:43:45;100275.72;;;20.12;59.25
63901;BME280;50538;53.482;10.294;2023-09-19T12:53:47;100280.22;;;20.35;58.77
63901;BME280;50538;53.482;10.294;2023-09-19T13:04:16;100274.59;;;20.37;58.68
63901;BME280;50538;53.482;10.294;2023-09-19T13:14:25;100254.44;;;20.56;56.89
63901;BME280;50538;53.482;10.294;2023-09-19T13:24:29;100256.44;;;20.77;56.14
63901;BME280;50538;53.482;10.294;2023-09-19T13:34:30;100238.28;;;20.73;56.31
63901;BME280;50538;53.482;10.294;2023-09-19T13:44:31;100244.00;;;20.60;56.44
63901;BME280;50538;53.482;10.294;2023-09-19T13:54:32;100240.50;;;20.76;55.32
63901;BME280;50538;53.482;10.294;2023-09-19T14:04:32;100219.81;;;20.81;55.20
63901;BME280;50538;53.482;10.294;2023-09-19T14:14:34;100207.22;;;20.87;54.51
63901;BME280;50538;53.482;10.294;2023-09-19T14:24:35;100201.09;;;20.92;55.00
63901;BME280;50538;53.482;10.294;2023-09-19T14:34:36;100206.03;;;21.00;55.32
63901;BME280;50538;53.482;10.294;2023-09-19T14:44:43;100198.88;;;20.72;55.65
63901;BME280;50538;53.482;10.294;2023-09-19T14:54:44;100197.72;;;20.51;56.95
63901;BME280;50538;53.482;10.294;2023-09-19T15:04:45;100197.63;;;20.29;57.57
63901;BME280;50538;53.482;10.294;2023-09-19T15:14:51;100196.22;;;20.27;58.82
63901;BME280;50538;53.482;10.294;2023-09-19T15:24:52;100184.78;;;20.08;61.19
63901;BME280;50538;53.482;10.294;2023-09-19T15:34:52;100190.38;;;19.90;61.91
63901;BME280;50538;53.482;10.294;2023-09-19T15:44:53;100197.94;;;19.76;63.12
63901;BME280;50538;53.482;10.294;2023-09-19T15:54:55;100184.69;;;19.74;62.83
63901;BME280;50538;53.482;10.294;2023-09-19T16:04:57;100182.72;;;19.70;62.95
63901;BME280;50538;53.482;10.294;2023-09-19T16:14:57;100169.88;;;19.60;63.04
63901;BME280;50538;53.482;10.294;2023-09-19T16:24:59;100172.22;;;19.57;62.75
63901;BME280;50538;53.482;10.294;2023-09-19T16:34:59;100170.25;;;19.52;63.50
63901;BME280;50538;53.482;10.294;2023-09-19T16:45:00;100174.13;;;19.44;63.64
63901;BME280;50538;53.482;10.294;2023-09-19T16:55:00;100165.59;;;19.36;63.72
63901;BME280;50538;53.482;10.294;2023-09-19T17:05:00;100172.13;;;19.28;64.27
63901;BME280;50538;53.482;10.294;2023-09-19T17:25:11;100174.34;;;19.19;65.01
63901;BME280;50538;53.482;10.294;2023-09-19T17:35:19;100170.84;;;19.19;64.54
63901;BME280;50538;53.482;10.294;2023-09-19T17:45:19;100186.16;;;19.18;64.10
63901;BME280;50538;53.482;10.294;2023-09-19T17:55:19;100200.44;;;19.19;63.91
63901;BME280;50538;53.482;10.294;2023-09-19T18:05:20;100177.31;;;19.18;63.26
63901;BME280;50538;53.482;10.294;2023-09-19T18:15:21;100191.81;;;19.17;63.71
63901;BME280;50538;53.482;10.294;2023-09-19T18:25:22;100209.84;;;19.16;63.71
63901;BME280;50538;53.482;10.294;2023-09-19T18:35:23;100204.91;;;19.13;63.56
63901;BME280;50538;53.482;10.294;2023-09-19T18:45:31;100207.38;;;19.15;64.58
63901;BME280;50538;53.482;10.294;2023-09-19T18:55:32;100201.41;;;19.13;64.31
63901;BME280;50538;53.482;10.294;2023-09-19T19:05:32;100202.13;;;19.08;64.57
63901;BME280;50538;53.482;10.294;2023-09-19T19:15:33;100202.13;;;19.08;65.13
63901;BME280;50538;53.482;10.294;2023-09-19T19:25:35;100203.16;;;19.07;65.56
63901;BME280;50538;53.482;10.294;2023-09-19T19:35:37;100194.28;;;19.07;65.89
63901;BME280;50538;53.482;10.294;2023-09-19T19:45:37;100205.50;;;19.04;66.51
63901;BME280;50538;53.482;10.294;2023-09-19T19:55:40;100203.03;;;19.02;67.00
63901;BME280;50538;53.482;10.294;2023-09-19T20:05:40;100211.81;;;18.98;67.50
63901;BME280;50538;53.482;10.294;2023-09-19T20:15:41;100203.97;;;18.96;67.55
63901;BME280;50538;53.482;10.294;2023-09-19T20:25:43;100210.88;;;18.92;67.88
63901;BME280;50538;53.482;10.294;2023-09-19T20:35:45;100211.94;;;18.91;68.47
63901;BME280;50538;53.482;10.294;2023-09-19T20:45:46;100209.94;;;18.87;69.12
63901;BME280;50538;53.482;10.294;2023-09-19T20:55:46;100203.97;;;18.84;68.98
63901;BME280;50538;53.482;10.294;2023-09-19T21:05:47;100219.75;;;18.81;69.29
63901;BME280;50538;53.482;10.294;2023-09-19T21:15:47;100211.09;;;18.79;69.97
63901;BME280;50538;53.482;10.294;2023-09-19T21:25:56;100212.16;;;18.78;70.18
63901;BME280;50538;53.482;10.294;2023-09-19T21:35:57;100215.88;;;18.77;70.46
63901;BME280;50538;53.482;10.294;2023-09-19T21:45:57;100216.34;;;18.74;70.66
63901;BME280;50538;53.482;10.294;2023-09-19T21:55:59;100213.66;;;18.74;70.99
63901;BME280;50538;53.482;10.294;2023-09-19T22:06:04;100215.75;;;18.72;71.56
63901;BME280;50538;53.482;10.294;2023-09-19T22:16:05;100208.25;;;18.62;73.10
63901;BME280;50538;53.482;10.294;2023-09-19T22:26:06;100208.63;;;18.54;75.01
63901;BME280;50538;53.482;10.294;2023-09-19T22:36:06;100208.94;;;18.46;76.04
63901;BME280;50538;53.482;10.294;2023-09-19T22:46:07;100208.69;;;18.36;76.81
63901;BME280;50538;53.482;10.294;2023-09-19T22:56:09;100213.06;;;18.30;77.67
63901;BME280;50538;53.482;10.294;2023-09-19T23:06:13;100211.88;;;18.26;77.67
63901;BME280;50538;53.482;10.294;2023-09-19T23:16:21;100208.38;;;18.26;77.84
63901;BME280;50538;53.482;10.294;2023-09-19T23:26:28;100230.47;;;18.28;77.71
63901;BME280;50538;53.482;10.294;2023-09-19T23:36:28;100212.72;;;18.27;78.87
63901;BME280;50538;53.482;10.294;2023-09-19T23:46:28;100220.63;;;18.22;79.20
63901;BME280;50538;53.482;10.294;2023-09-19T23:56:33;100216.75;;;18.17;79.63
